KSSI/SSI METAR and TAF weather

Enter ICAO airport designator
Station Type Date Time Source
KSSI METAR 2020/01/20 18:53 UTC NOAA

KSSI 201853Z AUTO 04013G19KT 10SM CLR 09/M01 A3025 RMK AO2 SLP244 T00941011


Station Type Date Time Source
KSSI Decoded METAR 2020/01/20 18:53 UTC NOAA

BRUNSWICK MC KINNON AIRPORT , GA, United States (KSSI) 31-09N 081-23W 6M
Jan 20, 2020 - 01:53 PM EST / 2020.01.20 1853 UTC
Wind: from the NE (040 degrees) at 15 MPH (13 KT) gusting to 22 MPH (19 KT):0
Visibility: 10 mile(s):0
Sky conditions: clear
Temperature: 48.9 F (9.4 C)
Dew Point: 30.0 F (-1.1 C)
Relative Humidity: 47%
Pressure (altimeter): 30.25 in. Hg (1024 hPa)
ob: KSSI 201853Z AUTO 04013G19KT 10SM CLR 09/M01 A3025 RMK AO2 SLP244 T00941011
cycle: 19

Station Type Date Time Source
KSSI TAF 2020/01/20 18:30 UTC NOAA

TAF KSSI 201729Z 2018/2118 02015G25KT P6SM FEW030 FEW150 FEW250
FM210000 36009KT P6SM SKC
FM211500 35015G25KT P6SM FEW120 FEW200

Example: see airport list